Time;durP1;ratioP1;P1;durP2;ratioP2;P2;SDS_P1;SDS_P2;PMS_P1;PMS_P2;Temp;Humidity;BMP_temperature;BMP_pressure;BME280_temperature;BME280_humidity;BME280_pressure;Samples;Min_cycle;Max_cycle;Signal;HPM_P1;HPM_P2
2020/12/10 00:01:26;;;;;;;71.42;31.40;;;;;;;-2.29;86.40;99840.78;2151546;81;21491;-81
2020/12/10 00:04:27;;;;;;;63.52;26.70;;;;;;;-2.31;86.37;99839.20;2145103;81;21127;-83
2020/12/10 00:07:29;;;;;;;79.65;32.45;;;;;;;-2.28;86.44;99842.91;2143159;81;21716;-82
2020/12/10 00:10:31;;;;;;;73.33;33.67;;;;;;;-2.24;86.46;99842.29;2139830;81;21555;-80
2020/12/10 00:13:33;;;;;;;75.42;31.05;;;;;;;-2.24;86.45;99826.69;2145486;80;21143;-80
2020/12/10 00:16:34;;;;;;;74.72;31.30;;;;;;;-2.22;86.48;99826.11;2146140;81;21147;-80
2020/12/10 00:19:36;;;;;;;63.83;25.20;;;;;;;-2.26;86.48;99828.07;2141744;81;21154;-83
2020/12/10 00:22:37;;;;;;;75.17;29.25;;;;;;;-2.29;86.45;99813.97;2142026;81;21125;-80
2020/12/10 00:25:41;;;;;;;76.92;28.00;;;;;;;-2.36;86.46;99817.41;2143684;81;21145;-83
2020/12/10 00:28:43;;;;;;;66.15;27.22;;;;;;;-2.42;86.52;99826.01;2141562;81;21099;-82
2020/12/10 00:31:46;;;;;;;73.45;32.48;;;;;;;-2.48;86.64;99815.52;2144490;81;21113;-79
2020/12/10 00:34:47;;;;;;;80.95;31.97;;;;;;;-2.50;86.62;99814.80;2144341;81;21112;-83
2020/12/10 00:37:49;;;;;;;66.55;27.15;;;;;;;-2.50;86.71;99816.09;2143797;81;21095;-82
2020/12/10 00:40:50;;;;;;;61.10;24.92;;;;;;;-2.52;86.75;99817.47;2144780;81;21163;-81
2020/12/10 00:43:52;;;;;;;67.25;29.23;;;;;;;-2.51;86.71;99816.53;2145772;81;21209;-80
2020/12/10 00:46:53;;;;;;;62.85;24.35;;;;;;;-2.48;86.71;99812.92;2146058;81;21572;-82
2020/12/10 00:49:56;;;;;;;81.90;28.77;;;;;;;-2.47;86.63;99821.11;2138030;81;21178;-80
2020/12/10 00:52:58;;;;;;;78.52;30.43;;;;;;;-2.52;86.60;99817.94;2138822;80;21095;-79
2020/12/10 00:55:59;;;;;;;63.87;27.95;;;;;;;-2.55;86.63;99807.73;2141887;81;21129;-81
2020/12/10 00:59:01;;;;;;;64.12;26.37;;;;;;;-2.55;86.69;99810.33;2145817;80;21139;-80
2020/12/10 01:02:03;;;;;;;72.00;28.62;;;;;;;-2.54;86.78;99811.52;2118613;81;21619;-79
2020/12/10 01:05:05;;;;;;;75.70;29.85;;;;;;;-2.56;86.76;99808.64;2100410;82;21511;-79
2020/12/10 01:08:07;;;;;;;68.22;29.98;;;;;;;-2.57;86.71;99796.59;2106492;82;21121;-81
2020/12/10 01:11:08;;;;;;;61.40;24.95;;;;;;;-2.57;86.75;99795.29;2104546;82;21125;-82
2020/12/10 01:14:11;;;;;;;62.65;24.23;;;;;;;-2.57;86.72;99805.69;2101565;82;21116;-82
2020/12/10 01:17:13;;;;;;;64.72;24.52;;;;;;;-2.60;86.77;99798.07;2098154;82;21112;-82
2020/12/10 01:20:15;;;;;;;63.60;28.70;;;;;;;-2.61;86.79;99788.15;2100803;82;21156;-80
2020/12/10 01:23:16;;;;;;;68.10;26.77;;;;;;;-2.58;86.87;99787.97;2101979;82;21612;-82
2020/12/10 01:26:17;;;;;;;67.87;27.85;;;;;;;-2.58;86.90;99791.03;2106322;82;21109;-82
2020/12/10 01:29:20;;;;;;;64.30;25.88;;;;;;;-2.58;86.96;99787.14;2106152;82;21241;-80
2020/12/10 01:32:23;;;;;;;63.90;24.65;;;;;;;-2.56;86.96;99786.13;2108365;82;21102;-82
2020/12/10 01:35:25;;;;;;;66.17;26.68;;;;;;;-2.57;87.01;99770.14;2105172;82;21214;-82
2020/12/10 01:38:26;;;;;;;64.72;26.60;;;;;;;-2.57;86.93;99777.11;2099597;82;21153;-82
2020/12/10 01:41:31;;;;;;;69.53;28.17;;;;;;;-2.56;86.98;99778.77;2104774;81;21121;-81
2020/12/10 01:44:32;;;;;;;58.42;22.07;;;;;;;-2.54;86.97;99765.23;2103138;82;21142;-83
2020/12/10 01:47:34;;;;;;;69.97;27.17;;;;;;;-2.54;86.98;99763.92;2101625;82;21199;-80
2020/12/10 01:50:35;;;;;;;58.48;22.62;;;;;;;-2.56;86.96;99762.73;2104577;82;21169;-80
2020/12/10 01:53:37;;;;;;;63.15;24.25;;;;;;;-2.54;87.02;99760.03;2099736;82;21204;-83
2020/12/10 01:56:38;;;;;;;58.35;25.35;;;;;;;-2.55;86.98;99758.38;2101632;82;21191;-80
2020/12/10 01:59:40;;;;;;;63.02;25.43;;;;;;;-2.53;86.97;99751.33;2106585;82;21191;-82
2020/12/10 02:02:41;;;;;;;49.25;20.97;;;;;;;-2.52;86.96;99765.98;2142792;81;21097;-82
2020/12/10 02:05:46;;;;;;;59.30;22.70;;;;;;;-2.54;86.94;99760.03;2157307;81;21111;-81
2020/12/10 02:08:48;;;;;;;60.43;25.17;;;;;;;-2.53;86.92;99748.73;2153373;81;21158;-83
2020/12/10 02:11:51;;;;;;;51.18;21.25;;;;;;;-2.53;86.89;99745.66;2153513;81;21102;-83
2020/12/10 02:14:52;;;;;;;60.43;25.43;;;;;;;-2.47;86.90;99752.25;2155129;81;21110;-81
2020/12/10 02:17:54;;;;;;;65.20;26.42;;;;;;;-2.48;86.83;99742.77;2153606;81;21121;-81
2020/12/10 02:20:55;;;;;;;57.75;23.80;;;;;;;-2.47;86.91;99739.27;2154231;81;21603;-81
2020/12/10 02:23:57;;;;;;;63.33;24.57;;;;;;;-2.45;86.95;99737.38;2154404;81;21147;-81
2020/12/10 02:26:59;;;;;;;64.60;28.30;;;;;;;-2.44;86.91;99739.08;2158499;81;21153;-80
2020/12/10 02:30:01;;;;;;;61.35;23.73;;;;;;;-2.44;86.92;99742.97;2155925;81;21216;-79
2020/12/10 02:33:05;;;;;;;64.05;24.80;;;;;;;-2.39;86.95;99737.03;2150655;81;21622;-81
2020/12/10 02:36:07;;;;;;;50.00;20.48;;;;;;;-2.37;86.92;99729.95;2157639;81;21112;-81
2020/12/10 02:39:09;;;;;;;62.30;27.55;;;;;;;-2.40;86.86;99739.72;2150055;81;21194;-83
2020/12/10 02:42:10;;;;;;;53.48;16.15;;;;;;;-2.43;86.87;99734.23;2154866;81;21144;-80
2020/12/10 02:45:12;;;;;;;61.30;21.77;;;;;;;-2.44;86.91;99733.05;2153288;81;21113;-83
2020/12/10 02:48:13;;;;;;;61.70;23.60;;;;;;;-2.46;86.93;99731.00;2150293;81;21125;-81
2020/12/10 02:51:15;;;;;;;45.65;17.52;;;;;;;-2.51;86.96;99728.20;2151672;81;21505;-81
2020/12/10 02:54:17;;;;;;;57.40;25.95;;;;;;;-2.54;87.04;99724.49;2151542;81;21137;-81
2020/12/10 02:57:18;;;;;;;57.43;23.10;;;;;;;-2.54;86.97;99719.30;2154429;81;21141;-81
2020/12/10 03:00:20;;;;;;;65.55;25.35;;;;;;;-2.51;86.97;99714.38;2154638;81;21114;-82
2020/12/10 03:03:21;;;;;;;54.03;21.55;;;;;;;-2.49;86.93;99715.95;2158763;80;21533;-80
2020/12/10 03:06:23;;;;;;;54.85;24.27;;;;;;;-2.48;86.87;99711.59;2162719;80;21143;-82
2020/12/10 03:09:24;;;;;;;56.75;24.82;;;;;;;-2.47;86.85;99713.75;2158328;81;21096;-79
2020/12/10 03:12:25;;;;;;;52.05;23.12;;;;;;;-2.46;86.91;99711.05;2154532;80;21601;-81
2020/12/10 03:15:27;;;;;;;58.28;25.23;;;;;;;-2.43;86.89;99703.53;2162049;81;21105;-81
2020/12/10 03:18:29;;;;;;;61.83;24.70;;;;;;;-2.43;86.88;99702.23;2158281;80;21119;-80
2020/12/10 03:21:30;;;;;;;52.80;23.60;;;;;;;-2.42;86.86;99699.55;2156997;80;21126;-81
2020/12/10 03:24:32;;;;;;;54.50;21.97;;;;;;;-2.38;86.90;99698.41;2162512;81;21157;-82
2020/12/10 03:27:33;;;;;;;55.83;22.67;;;;;;;-2.36;86.87;99696.56;2158585;80;21154;-81
2020/12/10 03:30:34;;;;;;;46.90;19.30;;;;;;;-2.37;86.83;99683.19;2119717;82;21186;-83
2020/12/10 03:33:36;;;;;;;51.83;20.30;;;;;;;-2.37;86.77;99684.95;2159077;80;21152;-82
2020/12/10 03:36:53;;;;;;;60.28;24.07;;;;;;;-2.42;86.68;99683.09;2158438;81;21196;-81
2020/12/10 03:39:54;;;;;;;47.75;18.55;;;;;;;-2.47;86.77;99674.31;2165870;80;21169;-82
2020/12/10 03:42:56;;;;;;;58.60;21.00;;;;;;;-2.49;86.92;99684.78;2161600;80;21166;-79
2020/12/10 03:45:57;;;;;;;54.58;23.92;;;;;;;-2.50;86.91;99672.73;2165835;80;21159;-81
2020/12/10 03:48:59;;;;;;;70.85;25.80;;;;;;;-2.50;86.88;99673.20;2161962;81;21216;-83
2020/12/10 03:52:00;;;;;;;45.80;19.90;;;;;;;-2.47;86.97;99665.22;2157519;80;22221;-82
2020/12/10 03:55:01;;;;;;;56.37;22.52;;;;;;;-2.46;86.95;99671.23;2161643;81;21134;-81
2020/12/10 03:58:03;;;;;;;53.13;20.32;;;;;;;-2.47;86.84;99670.88;2161942;80;21186;-81
2020/12/10 04:01:04;;;;;;;53.08;21.82;;;;;;;-2.50;86.80;99663.64;2157185;80;21198;-83
2020/12/10 04:04:06;;;;;;;52.17;21.20;;;;;;;-2.47;86.78;99667.81;2097909;82;21214;-84
2020/12/10 04:07:07;;;;;;;56.35;22.80;;;;;;;-2.47;86.77;99656.59;2102990;82;21180;-80
2020/12/10 04:10:09;;;;;;;60.10;23.47;;;;;;;-2.47;86.73;99654.82;2108845;82;21122;-83
2020/12/10 04:13:10;;;;;;;52.27;20.80;;;;;;;-2.48;86.61;99660.92;2102997;82;21112;-81
2020/12/10 04:16:12;;;;;;;56.42;22.70;;;;;;;-2.48;86.61;99653.13;2100106;82;21472;-80
2020/12/10 04:19:14;;;;;;;49.90;19.85;;;;;;;-2.49;86.67;99655.38;2044079;84;21154;-82
2020/12/10 04:22:15;;;;;;;50.95;19.55;;;;;;;-2.52;86.64;99660.76;2038049;84;21540;-81
2020/12/10 04:25:16;;;;;;;57.00;21.95;;;;;;;-2.56;86.74;99660.13;2104002;82;21155;-82
2020/12/10 04:28:18;;;;;;;52.78;20.68;;;;;;;-2.58;86.77;99662.45;2100605;82;21121;-80
2020/12/10 04:31:19;;;;;;;67.30;25.48;;;;;;;-2.60;86.81;99659.09;2104558;82;21114;-81
2020/12/10 04:34:21;;;;;;;61.68;24.47;;;;;;;-2.58;86.85;99655.95;2099153;82;21090;-79
2020/12/10 04:37:22;;;;;;;53.25;21.65;;;;;;;-2.56;86.92;99654.06;2100941;82;21159;-79
2020/12/10 04:40:24;;;;;;;59.88;23.92;;;;;;;-2.53;86.93;99657.80;2101597;82;21567;-81
2020/12/10 04:43:28;;;;;;;64.95;24.05;;;;;;;-2.51;86.82;99658.05;2099446;82;21136;-84
2020/12/10 04:46:32;;;;;;;63.65;24.32;;;;;;;-2.50;86.75;99657.61;2107048;82;21118;-82
2020/12/10 04:49:33;;;;;;;60.75;24.43;;;;;;;-2.51;86.76;99655.92;2100748;82;21613;-82
2020/12/10 04:52:35;;;;;;;49.35;19.12;;;;;;;-2.49;86.82;99646.28;2110015;82;21132;-80
2020/12/10 04:55:36;;;;;;;43.63;17.92;;;;;;;-2.47;86.73;99658.72;2093449;82;21588;-81
2020/12/10 04:58:38;;;;;;;54.40;21.27;;;;;;;-2.51;86.61;99658.52;2101605;82;21190;-80
2020/12/10 05:01:39;;;;;;;43.73;19.25;;;;;;;-2.55;86.59;99663.55;2105987;82;21128;-80
2020/12/10 05:04:41;;;;;;;49.88;19.70;;;;;;;-2.57;86.60;99660.20;2145799;80;21550;-80
2020/12/10 05:07:42;;;;;;;51.92;22.40;;;;;;;-2.57;86.74;99658.91;2143066;81;21167;-80
2020/12/10 05:10:45;;;;;;;56.55;23.20;;;;;;;-2.60;86.75;99661.70;2145625;80;21111;-83
2020/12/10 05:13:53;;;;;;;50.70;21.90;;;;;;;-2.60;86.78;99645.64;2145259;81;21139;-82
2020/12/10 05:17:15;;;;;;;52.30;21.52;;;;;;;-2.58;86.85;99650.75;2138357;81;21149;-81
2020/12/10 05:20:17;;;;;;;54.75;21.60;;;;;;;-2.61;86.81;99649.17;2142589;81;21129;-82
2020/12/10 05:23:38;;;;;;;55.08;22.90;;;;;;;-2.59;86.85;99651.66;2145619;80;21118;-80
2020/12/10 05:26:39;;;;;;;;;;;;;;;-2.57;86.86;99647.22;2148517;81;21135;-79
2020/12/10 05:29:40;;;;;;;;;;;;;;;-2.52;86.90;99643.87;2143096;81;20241;-81
2020/12/10 05:32:43;;;;;;;69.80;23.50;;;;;;;-2.50;86.90;99630.33;2143785;81;20170;-84
2020/12/10 05:35:44;;;;;;;55.63;22.22;;;;;;;-2.50;86.82;99638.13;2140747;81;21155;-79
2020/12/10 05:39:05;;;;;;;53.65;22.13;;;;;;;-2.56;86.69;99631.98;2141739;81;21154;-82
2020/12/10 05:42:07;;;;;;;51.13;20.68;;;;;;;-2.60;86.75;99635.72;2145238;81;21491;-80
2020/12/10 05:45:21;;;;;;;46.02;18.00;;;;;;;-2.65;86.65;99637.76;2142848;80;21111;-80
2020/12/10 05:48:26;;;;;;;47.13;18.90;;;;;;;-2.65;86.67;99631.27;2145225;81;21098;-84
2020/12/10 05:51:30;;;;;;;52.98;22.20;;;;;;;-2.65;86.74;99632.56;2145024;81;21131;-80
2020/12/10 05:54:34;;;;;;;54.88;22.13;;;;;;;-2.66;86.76;99634.80;2144162;81;21219;-79
2020/12/10 05:57:41;;;;;;;55.95;22.48;;;;;;;-2.65;86.75;99635.16;2142212;81;21176;-79
2020/12/10 06:00:43;;;;;;;53.40;19.48;;;;;;;-2.65;86.74;99623.48;2142828;81;21591;-79
2020/12/10 06:03:47;;;;;;;48.33;19.15;;;;;;;-2.61;86.81;99628.40;2119923;82;21130;-80
2020/12/10 06:06:51;;;;;;;60.88;22.17;;;;;;;-2.61;86.77;99632.77;2142226;81;21100;-80
2020/12/10 06:09:54;;;;;;;55.12;22.75;;;;;;;-2.65;86.78;99633.39;2144338;81;21640;-82
2020/12/10 06:12:58;;;;;;;55.85;23.25;;;;;;;-2.64;86.77;99631.19;2142836;80;21125;-81
2020/12/10 06:16:17;;;;;;;60.20;23.27;;;;;;;-2.62;86.77;99631.94;2142203;81;21163;-82
2020/12/10 06:19:22;;;;;;;49.20;19.65;;;;;;;-2.61;86.78;99628.87;2141218;81;21139;-82
2020/12/10 06:22:33;;;;;;;39.13;16.48;;;;;;;-2.64;86.81;99626.47;2122126;81;21657;-80
2020/12/10 06:25:34;;;;;;;50.33;20.97;;;;;;;-2.63;86.76;99634.14;2141237;81;21347;-80
2020/12/10 06:28:36;;;;;;;43.42;18.12;;;;;;;-2.64;86.77;99632.95;2144524;81;21612;-81
2020/12/10 06:32:02;;;;;;;53.00;21.07;;;;;;;-2.62;86.83;99629.34;2140362;81;21101;-80
2020/12/10 06:35:05;;;;;;;57.13;23.10;;;;;;;-2.64;86.85;99623.39;2139640;81;21165;-80
2020/12/10 06:38:09;;;;;;;51.68;21.30;;;;;;;-2.63;86.90;99622.45;2142567;81;21513;-81
2020/12/10 06:41:10;;;;;;;51.37;22.65;;;;;;;-2.61;86.95;99619.77;2140924;81;21622;-82
2020/12/10 06:44:36;;;;;;;45.95;18.02;;;;;;;-2.58;86.92;99613.09;2140901;81;21075;-80
2020/12/10 06:47:41;;;;;;;40.67;17.32;;;;;;;-2.59;86.79;99616.59;2145054;81;21165;-81
2020/12/10 06:50:43;;;;;;;49.55;21.23;;;;;;;-2.64;86.74;99598.72;2143804;81;21089;-81
2020/12/10 06:54:07;;;;;;;53.10;22.20;;;;;;;-2.65;86.75;99611.31;2140155;81;21625;-79
2020/12/10 06:57:08;;;;;;;34.98;15.95;;;;;;;-2.61;86.86;99611.52;2146173;81;21105;-79
2020/12/10 07:00:09;;;;;;;55.58;19.98;;;;;;;-2.56;86.86;99615.10;2142801;81;21565;-81
2020/12/10 07:03:16;;;;;;;46.92;22.32;;;;;;;-2.58;86.75;99609.19;2152955;81;21178;-81
2020/12/10 07:06:20;;;;;;;58.73;23.18;;;;;;;-2.63;86.74;99615.13;2161513;80;21588;-81
2020/12/10 07:09:21;;;;;;;43.65;18.90;;;;;;;-2.65;86.76;99607.42;2161530;80;21127;-82
2020/12/10 07:12:28;;;;;;;53.25;20.02;;;;;;;-2.65;86.82;99602.23;2164100;80;21563;-79
2020/12/10 07:15:30;;;;;;;45.05;17.37;;;;;;;-2.65;86.90;99606.59;2160937;80;21173;-81
2020/12/10 07:18:31;;;;;;;45.30;15.75;;;;;;;-2.68;87.07;99605.48;2161323;81;21572;-80
2020/12/10 07:21:33;;;;;;;50.35;19.10;;;;;;;-2.72;87.30;99595.77;2157113;80;21688;-78
2020/12/10 07:24:34;;;;;;;49.03;20.23;;;;;;;-2.75;87.43;99599.38;2161680;81;21587;-81
2020/12/10 07:27:36;;;;;;;39.88;16.77;;;;;;;-2.77;87.38;99599.93;2109561;81;21126;-79
2020/12/10 07:30:40;;;;;;;36.17;15.98;;;;;;;-2.78;87.28;99590.48;2108568;80;21121;-80
2020/12/10 07:33:42;;;;;;;43.05;18.12;;;;;;;-2.78;87.19;99594.38;2129228;82;21125;-82
2020/12/10 07:36:49;;;;;;;48.73;19.48;;;;;;;-2.78;87.22;99593.08;2132250;81;21075;-80
2020/12/10 07:39:50;;;;;;;45.70;20.37;;;;;;;-2.75;87.36;99582.97;2160730;80;21168;-82
2020/12/10 07:42:55;;;;;;;60.45;21.97;;;;;;;-2.74;87.48;99576.84;2131814;81;21527;-81
2020/12/10 07:45:57;;;;;;;61.45;24.75;;;;;;;-2.74;87.47;99575.06;2129980;81;21131;-82
2020/12/10 07:48:58;;;;;;;65.25;25.50;;;;;;;-2.75;87.48;99573.41;2164391;80;21176;-78
2020/12/10 07:52:11;;;;;;;55.52;21.10;;;;;;;-2.70;87.45;99575.73;2160568;80;21494;-79
2020/12/10 07:55:21;;;;;;;53.63;23.07;;;;;;;-2.66;87.56;99576.36;2163882;80;21324;-80
2020/12/10 07:58:59;;;;;;;54.77;21.57;;;;;;;-2.65;87.56;99574.13;2160305;81;21141;-78
2020/12/10 08:05:19;;;;;;;63.78;24.55;;;;;;;-2.64;87.66;99577.94;2125154;81;21174;-82
2020/12/10 08:08:31;;;;;;;49.45;19.60;;;;;;;-2.64;87.75;99566.72;2131737;81;21142;-81
2020/12/10 08:11:33;;;;;;;42.15;18.27;;;;;;;-2.62;87.73;99567.44;2151023;80;21183;-82
2020/12/10 08:14:34;;;;;;;55.95;22.17;;;;;;;-2.63;87.76;99569.20;2151175;80;21187;-82
2020/12/10 08:17:36;;;;;;;52.27;18.87;;;;;;;-2.65;87.75;99570.23;2151709;81;21590;-83
2020/12/10 08:20:50;;;;;;;51.15;19.92;;;;;;;-2.63;87.79;99580.06;2109578;81;21176;-78
2020/12/10 08:23:51;;;;;;;50.60;20.75;;;;;;;-2.61;87.72;99575.62;2133051;81;21212;-83
2020/12/10 08:26:59;;;;;;;50.35;20.20;;;;;;;-2.58;87.58;99570.23;2143896;81;21600;-81
2020/12/10 08:30:11;;;;;;;45.15;19.67;;;;;;;-2.58;87.52;99569.75;2152154;80;22090;-81
2020/12/10 08:33:10;;;;;;;53.87;20.60;;;;;;;-2.59;87.50;99577.19;2147069;81;21189;-83
2020/12/10 08:36:15;;;;;;;54.48;21.68;;;;;;;-2.59;87.59;99572.44;2154611;81;21081;-80
2020/12/10 08:39:16;;;;;;;55.10;23.90;;;;;;;-2.61;87.58;99575.62;2147430;80;21141;-81
2020/12/10 08:42:23;;;;;;;52.20;20.95;;;;;;;-2.60;87.65;99578.57;2123940;81;21172;-80
2020/12/10 08:45:44;;;;;;;55.78;21.23;;;;;;;-2.58;87.68;99568.93;2150757;81;21608;-82
2020/12/10 08:48:44;;;;;;;51.98;21.05;;;;;;;-2.56;87.69;99574.40;2151088;81;21094;-79
2020/12/10 08:51:49;;;;;;;47.75;20.02;;;;;;;-2.53;87.62;99579.40;2144093;81;21149;-83
2020/12/10 08:54:52;;;;;;;51.25;21.33;;;;;;;-2.52;87.60;99582.82;2124805;80;21554;-80
2020/12/10 08:57:54;;;;;;;38.15;17.45;;;;;;;-2.54;87.55;99569.92;2146894;81;21215;-79
2020/12/10 09:01:00;;;;;;;46.37;17.00;;;;;;;-2.50;87.56;99573.18;2139513;81;21163;-80
2020/12/10 09:04:05;;;;;;;55.30;22.02;;;;;;;-2.52;87.49;99564.64;2126271;80;21183;-82
2020/12/10 09:07:07;;;;;;;52.00;22.30;;;;;;;-2.49;87.49;99568.34;2162433;80;21196;-83
2020/12/10 09:10:10;;;;;;;52.40;21.33;;;;;;;-2.45;87.48;99565.90;2111892;80;21131;-81
2020/12/10 09:13:12;;;;;;;39.15;16.20;;;;;;;-2.41;87.61;99563.48;2113951;80;21072;-81
2020/12/10 09:16:17;;;;;;;49.03;20.15;;;;;;;-2.47;87.62;99565.19;2136895;81;21187;-82
2020/12/10 09:19:18;;;;;;;51.08;19.62;;;;;;;-2.49;87.63;99566.56;2128194;80;21113;-82
2020/12/10 09:22:20;;;;;;;56.95;22.40;;;;;;;-2.47;87.65;99558.69;2161531;81;21146;-78
2020/12/10 09:25:21;;;;;;;48.48;21.80;;;;;;;-2.44;87.61;99561.56;2159610;80;21589;-80
2020/12/10 09:28:28;;;;;;;40.98;16.80;;;;;;;-2.44;87.60;99552.47;2134332;80;21212;-83
2020/12/10 09:31:29;;;;;;;53.25;22.13;;;;;;;-2.41;87.55;99552.27;2157538;80;21105;-78
2020/12/10 09:34:31;;;;;;;45.00;20.70;;;;;;;-2.40;87.53;99541.77;2161930;80;21552;-80
2020/12/10 09:37:35;;;;;;;44.48;17.62;;;;;;;-2.38;87.50;99546.40;2148341;81;21208;-81
2020/12/10 09:40:37;;;;;;;46.48;19.55;;;;;;;-2.37;87.52;99545.45;2164280;80;21178;-82
2020/12/10 09:43:38;;;;;;;57.08;23.12;;;;;;;-2.34;87.44;99543.13;2135308;81;21132;-80
2020/12/10 09:46:41;;;;;;;50.35;20.68;;;;;;;-2.33;87.38;99540.45;2164529;80;21163;-83
2020/12/10 09:49:43;;;;;;;53.52;21.12;;;;;;;-2.36;87.25;99536.75;2131857;82;21163;-82
2020/12/10 09:52:52;;;;;;;42.45;19.77;;;;;;;-2.38;87.25;99528.22;2145334;82;21720;-81
2020/12/10 09:58:57;;;;;;;49.35;20.10;;;;;;;-2.37;87.32;99520.77;2164323;80;21118;-79
2020/12/10 10:01:58;;;;;;;44.70;17.75;;;;;;;-2.37;87.24;99516.88;2139949;81;21599;-83
2020/12/10 10:05:01;;;;;;;50.15;20.72;;;;;;;-2.37;87.26;99517.34;2134774;80;21119;-81
2020/12/10 10:08:03;;;;;;;49.67;20.05;;;;;;;-2.39;87.25;99510.97;2141946;81;21125;-83
2020/12/10 10:11:05;;;;;;;51.42;20.55;;;;;;;-2.39;87.28;99502.31;2162358;81;21238;-82
2020/12/10 10:14:08;;;;;;;47.85;17.37;;;;;;;-2.40;87.37;99500.19;2150899;80;21163;-80
2020/12/10 10:17:10;;;;;;;52.03;21.57;;;;;;;-2.37;87.39;99501.28;2160986;80;21079;-82
2020/12/10 10:20:11;;;;;;;47.70;20.05;;;;;;;-2.35;87.37;99498.13;2144874;81;21151;-82
2020/12/10 10:23:14;;;;;;;52.25;22.58;;;;;;;-2.33;87.39;99488.48;2112240;81;21524;-82
2020/12/10 10:26:16;;;;;;;34.70;15.75;;;;;;;-2.34;87.38;99486.79;2160270;80;21145;-81
2020/12/10 10:29:21;;;;;;;43.95;19.62;;;;;;;-2.34;87.28;99485.49;2156021;80;21179;-80
2020/12/10 10:32:23;;;;;;;46.83;18.95;;;;;;;-2.34;87.30;99482.89;2138935;80;21531;-80
2020/12/10 10:35:25;;;;;;;46.45;19.42;;;;;;;-2.34;87.27;99482.89;2144582;81;21087;-78
2020/12/10 10:38:28;;;;;;;45.83;19.35;;;;;;;-2.37;87.14;99479.67;2137263;80;21075;-82
2020/12/10 10:41:30;;;;;;;41.55;18.48;;;;;;;-2.36;87.20;99480.06;2159870;81;21204;-81
2020/12/10 10:44:34;;;;;;;41.73;16.40;;;;;;;-2.37;87.16;99478.37;2162494;80;21108;-81
2020/12/10 10:47:36;;;;;;;44.08;19.10;;;;;;;-2.42;87.14;99470.89;2114946;81;21116;-82
2020/12/10 10:50:38;;;;;;;45.98;19.15;;;;;;;-2.43;87.17;99470.98;2134504;81;21163;-82
2020/12/10 10:53:42;;;;;;;38.55;16.00;;;;;;;-2.45;87.17;99467.64;2158206;80;21533;-83
2020/12/10 10:56:45;;;;;;;47.75;19.57;;;;;;;-2.45;87.20;99460.67;2134749;81;21141;-83
2020/12/10 10:59:49;;;;;;;44.15;18.23;;;;;;;-2.49;87.18;99453.55;2130396;81;21286;-82
2020/12/10 11:02:51;;;;;;;46.08;18.45;;;;;;;-2.52;87.12;99456.36;2156413;80;21184;-81
2020/12/10 11:05:55;;;;;;;44.95;19.32;;;;;;;-2.50;87.25;99452.37;2134517;81;21113;-83
2020/12/10 11:08:59;;;;;;;31.87;15.40;;;;;;;-2.52;87.09;99451.63;2126416;81;21326;-83
2020/12/10 11:12:05;;;;;;;48.35;19.80;;;;;;;-2.55;86.99;99452.66;2127619;82;21098;-86
2020/12/10 11:15:06;;;;;;;41.53;18.62;;;;;;;-2.59;86.95;99448.61;2127391;81;21162;-81
2020/12/10 11:18:09;;;;;;;44.05;17.65;;;;;;;-2.57;87.09;99443.30;2130041;81;21105;-79
2020/12/10 11:21:12;;;;;;;39.80;17.37;;;;;;;-2.57;87.06;99447.20;2154313;80;21180;-82
2020/12/10 11:24:14;;;;;;;46.73;19.23;;;;;;;-2.57;87.10;99445.90;2113064;81;21156;-82
2020/12/10 11:27:15;;;;;;;43.75;18.57;;;;;;;-2.56;87.05;99443.21;2154988;81;21197;-78
2020/12/10 11:30:17;;;;;;;37.48;15.30;;;;;;;-2.55;87.08;99442.74;2152980;80;21147;-80
2020/12/10 11:33:18;;;;;;;44.30;19.25;;;;;;;-2.57;86.99;99431.14;2149876;81;21107;-82
2020/12/10 11:36:20;;;;;;;39.90;17.30;;;;;;;-2.55;87.05;99436.25;2105570;81;21133;-81
2020/12/10 11:39:21;;;;;;;40.70;17.02;;;;;;;-2.54;87.00;99435.30;2130107;81;21191;-81
2020/12/10 11:42:25;;;;;;;39.48;18.62;;;;;;;-2.54;86.93;99430.94;2149029;81;21542;-81
2020/12/10 11:45:26;;;;;;;48.73;20.55;;;;;;;-2.53;86.96;99425.30;2133647;81;21152;-84
2020/12/10 11:48:29;;;;;;;49.38;19.48;;;;;;;-2.49;86.95;99425.45;2124809;81;21115;-81
2020/12/10 11:51:32;;;;;;;48.87;20.97;;;;;;;-2.42;86.98;99424.56;2127033;82;21198;-80
2020/12/10 11:54:34;;;;;;;41.33;18.35;;;;;;;-2.41;86.92;99428.38;2154359;80;21141;-77
2020/12/10 11:57:35;;;;;;;52.65;22.75;;;;;;;-2.40;86.83;99421.41;2110835;81;21138;-80
2020/12/10 12:00:38;;;;;;;56.60;22.60;;;;;;;-2.40;86.82;99422.23;2164635;79;21355;-78
2020/12/10 12:03:40;;;;;;;53.33;22.77;;;;;;;-2.36;86.93;99427.61;2131371;81;21143;-84
2020/12/10 12:06:44;;;;;;;50.10;20.17;;;;;;;-2.36;86.90;99422.42;2156324;81;21135;-79
2020/12/10 12:09:48;;;;;;;55.28;22.05;;;;;;;-2.38;86.82;99421.67;2154643;81;21095;-79
2020/12/10 12:12:49;;;;;;;44.35;18.62;;;;;;;-2.37;86.92;99424.63;2129798;81;21196;-86
2020/12/10 12:15:51;;;;;;;46.77;20.88;;;;;;;-2.38;86.82;99437.73;2153635;81;21116;-78
2020/12/10 12:18:52;;;;;;;46.88;20.85;;;;;;;-2.43;86.70;99429.41;2133175;81;21544;-81
2020/12/10 12:21:55;;;;;;;51.90;21.02;;;;;;;-2.45;86.74;99435.99;2135796;81;21144;-81
2020/12/10 12:24:57;;;;;;;47.83;20.72;;;;;;;-2.47;86.74;99430.09;2129991;81;21592;-84
2020/12/10 12:28:00;;;;;;;54.03;21.62;;;;;;;-2.50;86.63;99431.59;2129860;81;21070;-81
2020/12/10 12:31:02;;;;;;;36.98;16.55;;;;;;;-2.53;86.71;99434.39;2155167;81;21201;-78
2020/12/10 12:34:04;;;;;;;48.65;21.12;;;;;;;-2.51;86.77;99429.44;2131141;81;21162;-81
2020/12/10 12:37:05;;;;;;;46.37;19.17;;;;;;;-2.52;86.76;99430.84;2133799;81;21156;-79
2020/12/10 12:40:07;;;;;;;39.65;18.62;;;;;;;-2.51;86.82;99429.91;2130943;81;21585;-82
2020/12/10 12:43:11;;;;;;;53.45;19.77;;;;;;;-2.48;86.85;99424.50;2129122;81;21211;-80
2020/12/10 12:46:15;;;;;;;53.33;21.77;;;;;;;-2.45;86.77;99423.00;2155312;81;21106;-81
2020/12/10 12:49:17;;;;;;;49.18;19.65;;;;;;;-2.42;86.79;99425.42;2110238;81;21603;-82
2020/12/10 12:52:20;;;;;;;51.30;22.52;;;;;;;-2.40;86.72;99417.04;2128767;81;21131;-78
2020/12/10 12:55:23;;;;;;;54.73;24.70;;;;;;;-2.36;86.65;99421.11;2154698;81;21583;-82
2020/12/10 12:58:25;;;;;;;56.33;22.60;;;;;;;-2.34;86.61;99425.72;2134901;82;21130;-82
2020/12/10 13:01:26;;;;;;;72.00;26.68;;;;;;;-2.33;86.57;99430.00;2156604;80;21132;-81
2020/12/10 13:04:28;;;;;;;62.85;25.95;;;;;;;-2.30;86.61;99428.50;2130628;81;21154;-80
2020/12/10 13:07:30;;;;;;;62.10;23.80;;;;;;;-2.28;86.54;99434.44;2150979;81;21536;-83
2020/12/10 13:10:32;;;;;;;69.53;27.10;;;;;;;-2.27;86.53;99433.49;2129306;82;21131;-81
2020/12/10 13:13:35;;;;;;;68.55;27.22;;;;;;;-2.27;86.54;99436.09;2111932;81;21170;-81
2020/12/10 13:16:43;;;;;;;67.80;27.80;;;;;;;-2.23;86.60;99431.98;2132221;81;21161;-82
2020/12/10 13:19:46;;;;;;;70.35;29.48;;;;;;;-2.20;86.58;99426.58;2127011;82;21583;-79
2020/12/10 13:22:49;;;;;;;67.22;27.30;;;;;;;-2.16;86.57;99425.45;2086589;81;21166;-81
2020/12/10 13:25:50;;;;;;;72.30;29.25;;;;;;;-2.14;86.49;99417.06;2101863;81;21168;-81
2020/12/10 13:28:52;;;;;;;84.97;32.63;;;;;;;-2.14;86.46;99418.37;2108690;81;21081;-78
2020/12/10 13:31:54;;;;;;;72.58;30.37;;;;;;;-2.15;86.40;99419.31;2154493;81;21554;-78
2020/12/10 13:34:56;;;;;;;75.20;29.72;;;;;;;-2.18;86.44;99413.02;2044335;83;21101;-79
2020/12/10 13:37:57;;;;;;;81.55;31.02;;;;;;;-2.15;86.52;99403.72;2065272;83;21147;-79
2020/12/10 13:40:59;;;;;;;77.20;30.60;;;;;;;-2.17;86.51;99401.20;2071945;84;21143;-82
2020/12/10 13:44:02;;;;;;;91.35;35.70;;;;;;;-2.20;86.58;99415.70;2057259;84;21142;-82
2020/12/10 13:47:03;;;;;;;88.40;35.08;;;;;;;-2.20;86.57;99414.88;2161293;80;21134;-82
2020/12/10 13:50:07;;;;;;;72.15;30.50;;;;;;;-2.21;86.55;99411.45;2126204;81;21576;-81
2020/12/10 13:53:09;;;;;;;79.27;30.85;;;;;;;-2.24;86.58;99412.14;2152369;81;21075;-79
2020/12/10 13:56:13;;;;;;;81.95;32.80;;;;;;;-2.23;86.61;99409.89;2151196;80;21542;-81
2020/12/10 13:59:15;;;;;;;77.20;33.50;;;;;;;-2.26;86.57;99407.86;2134361;81;21196;-82
2020/12/10 14:02:19;;;;;;;64.17;29.50;;;;;;;-2.23;86.57;99411.20;2116521;81;21142;-80
2020/12/10 14:05:20;;;;;;;69.65;30.55;;;;;;;-2.23;86.60;99404.22;2124444;80;21550;-84
2020/12/10 14:08:22;;;;;;;71.65;33.42;;;;;;;-2.21;86.65;99402.36;2130364;81;21093;-82